Time;durP1;ratioP1;P1;durP2;ratioP2;P2;SDS_P1;SDS_P2;PMS_P1;PMS_P2;Temp;Humidity;BMP_temperature;BMP_pressure;BME280_temperature;BME280_humidity;BME280_pressure;Samples;Min_cycle;Max_cycle;Signal;HPM_P1;HPM_P2
2023/11/15 00:00:31;;;;;;;0.00;0.00;;;23.70;45.00;;;;;;5011898;28;20649;-44
2023/11/15 00:03:04;;;;;;;0.00;0.00;;;23.70;45.00;;;;;;5016750;28;20731;-51
2023/11/15 00:05:34;;;;;;;0.00;0.00;;;23.70;44.90;;;;;;5012896;28;20681;-52
2023/11/15 00:08:05;;;;;;;0.00;0.00;;;23.70;44.80;;;;;;5012202;28;21181;-55
2023/11/15 00:10:39;;;;;;;0.10;0.10;;;23.70;45.00;;;;;;5011277;28;20247;-52
2023/11/15 00:13:10;;;;;;;0.00;0.00;;;23.70;45.10;;;;;;5012966;28;20292;-53
2023/11/15 00:15:41;;;;;;;0.00;0.00;;;23.70;45.10;;;;;;5012064;28;20197;-55
2023/11/15 00:18:13;;;;;;;0.00;0.00;;;23.80;45.20;;;;;;5011340;28;20217;-55
2023/11/15 00:20:44;;;;;;;0.10;0.10;;;23.70;45.10;;;;;;5012128;28;20201;-53
2023/11/15 00:23:14;;;;;;;0.00;0.00;;;23.80;45.20;;;;;;4992384;28;20198;-53
2023/11/15 00:25:45;;;;;;;0.03;0.03;;;23.80;45.30;;;;;;4995110;28;20208;-55
2023/11/15 00:28:16;;;;;;;0.00;0.00;;;23.80;45.30;;;;;;5032278;28;20224;-54
2023/11/15 00:30:46;;;;;;;0.00;0.00;;;23.80;45.30;;;;;;5024546;28;20235;-53
2023/11/15 00:33:19;;;;;;;0.03;0.03;;;23.80;45.30;;;;;;5031638;28;20679;-53
2023/11/15 00:35:50;;;;;;;0.10;0.10;;;23.90;45.30;;;;;;5029899;28;20200;-55
2023/11/15 00:38:21;;;;;;;0.10;0.10;;;23.90;45.30;;;;;;5011887;28;20220;-52
2023/11/15 00:40:52;;;;;;;0.00;0.00;;;24.00;45.40;;;;;;5011668;28;20208;-54
2023/11/15 00:43:23;;;;;;;0.00;0.00;;;23.90;45.80;;;;;;5012391;28;20200;-55
2023/11/15 00:45:53;;;;;;;0.00;0.00;;;24.00;45.20;;;;;;5011677;28;20209;-57
2023/11/15 00:48:29;;;;;;;0.00;0.00;;;24.00;45.10;;;;;;5012206;28;20252;-56
2023/11/15 00:51:00;;;;;;;0.00;0.00;;;24.00;45.10;;;;;;5011634;28;20287;-56
2023/11/15 00:53:30;;;;;;;0.00;0.00;;;24.00;45.00;;;;;;5028670;28;20200;-56
2023/11/15 00:56:01;;;;;;;0.00;0.00;;;24.10;45.00;;;;;;5028876;28;20649;-53
2023/11/15 00:58:38;;;;;;;0.00;0.00;;;24.00;45.30;;;;;;5011544;28;20225;-54
2023/11/15 01:01:10;;;;;;;0.00;0.00;;;24.10;45.50;;;;;;5012162;28;20276;-54
2023/11/15 01:03:45;;;;;;;0.00;0.00;;;24.10;45.50;;;;;;5011842;28;20244;-55
2023/11/15 01:06:16;;;;;;;0.00;0.00;;;24.10;45.60;;;;;;5011509;28;20188;-55
2023/11/15 01:08:46;;;;;;;0.00;0.00;;;24.20;45.60;;;;;;5011292;28;20224;-55
2023/11/15 01:11:17;;;;;;;0.00;0.00;;;24.20;45.60;;;;;;5011693;28;20197;-55
2023/11/15 01:13:48;;;;;;;0.00;0.00;;;24.20;45.50;;;;;;5011977;28;20201;-55
2023/11/15 01:16:22;;;;;;;0.00;0.00;;;24.30;45.50;;;;;;5011332;28;20220;-54
2023/11/15 01:18:55;;;;;;;0.00;0.00;;;24.30;45.50;;;;;;5009765;28;20247;-55
2023/11/15 01:21:25;;;;;;;0.10;0.10;;;24.30;45.50;;;;;;5012057;28;20243;-54
2023/11/15 01:23:56;;;;;;;0.00;0.00;;;24.40;45.50;;;;;;5011844;28;20208;-52
2023/11/15 01:26:27;;;;;;;0.10;0.10;;;24.40;45.50;;;;;;5011456;28;20723;-54
2023/11/15 01:28:58;;;;;;;0.00;0.00;;;24.40;45.40;;;;;;5011800;28;20680;-55
2023/11/15 01:31:29;;;;;;;0.00;0.00;;;24.40;45.40;;;;;;5011939;28;20380;-55
2023/11/15 01:34:01;;;;;;;0.00;0.00;;;24.50;45.50;;;;;;5011649;28;20212;-55
2023/11/15 01:36:32;;;;;;;0.00;0.00;;;24.50;45.50;;;;;;5011754;28;20196;-55
2023/11/15 01:39:04;;;;;;;0.00;0.00;;;24.50;45.50;;;;;;5011663;28;20653;-55
2023/11/15 01:41:34;;;;;;;0.00;0.00;;;24.60;45.50;;;;;;5011213;28;20192;-54
2023/11/15 01:44:05;;;;;;;0.00;0.00;;;24.60;45.40;;;;;;5010919;28;20200;-54
2023/11/15 01:46:36;;;;;;;0.00;0.00;;;24.70;45.40;;;;;;5011643;28;20653;-53
2023/11/15 01:49:08;;;;;;;0.00;0.00;;;24.70;45.40;;;;;;5011536;28;20229;-54
2023/11/15 01:51:39;;;;;;;0.00;0.00;;;24.70;45.40;;;;;;5011649;28;20201;-55
2023/11/15 01:54:10;;;;;;;0.00;0.00;;;24.70;45.40;;;;;;5011497;28;20201;-53
2023/11/15 01:56:41;;;;;;;0.00;0.00;;;24.80;45.60;;;;;;5011493;28;20200;-50
2023/11/15 01:59:13;;;;;;;0.00;0.00;;;24.80;45.50;;;;;;5011513;28;20197;-54
2023/11/15 02:01:43;;;;;;;0.10;0.10;;;24.80;45.40;;;;;;5011232;28;20347;-49
2023/11/15 02:04:15;;;;;;;0.00;0.00;;;24.80;45.40;;;;;;5011306;28;20213;-53
2023/11/15 02:06:46;;;;;;;0.00;0.00;;;24.90;45.40;;;;;;5011156;28;20196;-55
2023/11/15 02:09:17;;;;;;;0.00;0.00;;;24.90;45.30;;;;;;5023911;28;20227;-50
2023/11/15 02:11:47;;;;;;;0.00;0.00;;;25.00;45.30;;;;;;5020057;28;20208;-54
2023/11/15 02:14:18;;;;;;;0.00;0.00;;;25.00;45.20;;;;;;5011341;28;20204;-54
2023/11/15 02:16:51;;;;;;;0.00;0.00;;;25.00;45.20;;;;;;5012490;28;20196;-52
2023/11/15 02:19:24;;;;;;;0.00;0.00;;;25.10;45.20;;;;;;4991454;28;20206;-51
2023/11/15 02:21:54;;;;;;;0.00;0.00;;;25.10;45.30;;;;;;4991296;28;20200;-54
2023/11/15 02:24:27;;;;;;;0.00;0.00;;;25.20;45.30;;;;;;4991218;28;20650;-51
2023/11/15 02:26:58;;;;;;;0.00;0.00;;;25.20;45.40;;;;;;4991008;28;20218;-53
2023/11/15 02:29:28;;;;;;;0.00;0.00;;;25.20;45.40;;;;;;4990991;28;20232;-51
2023/11/15 02:31:59;;;;;;;0.00;0.00;;;25.30;45.40;;;;;;4991279;28;20201;-54
2023/11/15 02:34:30;;;;;;;0.00;0.00;;;25.30;45.40;;;;;;5029943;28;20653;-50
2023/11/15 02:37:00;;;;;;;0.00;0.00;;;25.30;45.40;;;;;;5030260;28;20227;-53
2023/11/15 02:39:33;;;;;;;0.00;0.00;;;25.40;45.50;;;;;;5030656;28;20215;-53
2023/11/15 02:42:03;;;;;;;0.00;0.00;;;25.40;45.50;;;;;;5017419;28;20201;-53
2023/11/15 02:44:35;;;;;;;0.00;0.00;;;25.40;45.40;;;;;;5011113;28;20204;-52
2023/11/15 02:47:05;;;;;;;0.00;0.00;;;25.50;45.30;;;;;;5011060;28;20224;-56
2023/11/15 02:49:36;;;;;;;0.00;0.00;;;25.50;45.20;;;;;;5010939;28;20590;-55
2023/11/15 02:52:07;;;;;;;0.00;0.00;;;25.60;45.10;;;;;;5029681;28;20649;-54
2023/11/15 02:54:40;;;;;;;0.00;0.00;;;25.60;45.00;;;;;;5027174;28;20468;-54
2023/11/15 02:57:11;;;;;;;0.10;0.10;;;25.60;45.00;;;;;;5012038;28;20243;-54
2023/11/15 02:59:42;;;;;;;0.00;0.00;;;25.60;44.90;;;;;;5012468;28;20712;-49
2023/11/15 03:02:14;;;;;;;0.00;0.00;;;25.70;45.00;;;;;;5000307;28;20193;-54
2023/11/15 03:04:45;;;;;;;0.00;0.00;;;25.80;45.00;;;;;;4997186;28;20604;-53
2023/11/15 03:07:17;;;;;;;0.00;0.00;;;25.80;44.90;;;;;;5012764;28;20216;-47
2023/11/15 03:09:49;;;;;;;0.00;0.00;;;25.80;44.90;;;;;;5013645;28;20383;-54
2023/11/15 03:12:20;;;;;;;0.00;0.00;;;25.90;45.00;;;;;;5013988;28;20200;-54
2023/11/15 03:14:51;;;;;;;0.00;0.00;;;25.90;45.00;;;;;;5013884;28;20228;-55
2023/11/15 03:17:22;;;;;;;0.00;0.00;;;26.00;45.00;;;;;;5013283;28;20244;-54
2023/11/15 03:19:53;;;;;;;0.00;0.00;;;26.00;45.00;;;;;;5013470;28;20204;-55
2023/11/15 03:22:23;;;;;;;0.00;0.00;;;26.00;45.00;;;;;;5012768;28;20284;-53
2023/11/15 03:24:56;;;;;;;0.00;0.00;;;26.10;44.90;;;;;;5013547;28;20559;-54
2023/11/15 03:27:26;;;;;;;0.00;0.00;;;26.10;44.90;;;;;;5012990;28;20221;-55
2023/11/15 03:29:57;;;;;;;0.00;0.00;;;26.10;44.90;;;;;;5013411;28;20244;-53
2023/11/15 03:32:28;;;;;;;0.00;0.00;;;26.10;45.00;;;;;;5012298;28;20208;-49
2023/11/15 03:34:59;;;;;;;0.00;0.00;;;26.20;45.00;;;;;;5021430;28;20272;-55
2023/11/15 03:37:30;;;;;;;0.00;0.00;;;26.20;44.90;;;;;;5012782;28;20224;-54
2023/11/15 03:40:04;;;;;;;0.00;0.00;;;26.20;44.80;;;;;;5012704;28;20263;-46
2023/11/15 03:42:34;;;;;;;0.00;0.00;;;26.20;44.70;;;;;;5013365;28;20207;-55
2023/11/15 03:45:06;;;;;;;0.00;0.00;;;26.30;44.70;;;;;;5011871;28;20189;-53
2023/11/15 03:47:36;;;;;;;0.00;0.00;;;26.30;44.70;;;;;;5012773;28;20267;-52
2023/11/15 03:50:08;;;;;;;0.00;0.00;;;26.30;44.60;;;;;;5011801;28;20232;-52
2023/11/15 03:52:38;;;;;;;0.00;0.00;;;26.40;44.60;;;;;;5013437;28;20208;-53
2023/11/15 03:55:12;;;;;;;0.00;0.00;;;26.40;44.60;;;;;;5012845;28;20185;-52
2023/11/15 03:57:46;;;;;;;0.00;0.00;;;26.40;44.60;;;;;;5012654;28;20227;-44
2023/11/15 04:00:18;;;;;;;0.00;0.00;;;26.50;44.60;;;;;;5012634;28;20224;-52
2023/11/15 04:02:49;;;;;;;0.00;0.00;;;26.50;44.60;;;;;;5012561;28;20224;-52
2023/11/15 04:05:20;;;;;;;0.00;0.00;;;26.50;44.60;;;;;;5011496;28;20196;-43
2023/11/15 04:07:50;;;;;;;0.00;0.00;;;26.50;44.60;;;;;;5012069;28;20221;-44
2023/11/15 04:10:23;;;;;;;0.00;0.00;;;26.50;44.60;;;;;;5013062;28;20229;-55
2023/11/15 04:12:54;;;;;;;0.00;0.00;;;26.50;44.60;;;;;;5024829;28;20188;-52
2023/11/15 04:15:25;;;;;;;0.00;0.00;;;26.50;44.60;;;;;;5026480;28;20203;-53
2023/11/15 04:17:56;;;;;;;0.00;0.00;;;26.50;44.60;;;;;;5030690;28;20215;-53
2023/11/15 04:20:27;;;;;;;0.00;0.00;;;26.60;44.60;;;;;;5023410;28;20197;-50
2023/11/15 04:22:59;;;;;;;0.00;0.00;;;26.60;44.60;;;;;;5011911;28;20205;-54
2023/11/15 04:25:31;;;;;;;0.00;0.00;;;26.60;44.70;;;;;;5012922;28;20207;-44
2023/11/15 04:28:03;;;;;;;0.00;0.00;;;26.60;44.60;;;;;;5012219;28;20223;-50
2023/11/15 04:30:33;;;;;;;0.00;0.00;;;26.60;44.60;;;;;;5011110;28;20631;-53
2023/11/15 04:33:04;;;;;;;0.00;0.00;;;26.60;44.60;;;;;;5012189;28;20208;-54
2023/11/15 04:35:35;;;;;;;0.00;0.00;;;26.70;44.60;;;;;;5017050;28;20224;-55
2023/11/15 04:38:09;;;;;;;0.00;0.00;;;26.70;44.60;;;;;;5031539;28;20212;-56
2023/11/15 04:40:41;;;;;;;0.00;0.00;;;26.70;44.50;;;;;;5025623;28;20251;-54
2023/11/15 04:43:12;;;;;;;0.00;0.00;;;26.80;44.60;;;;;;5011323;28;20209;-54
2023/11/15 04:45:42;;;;;;;0.00;0.00;;;26.80;44.60;;;;;;5011658;28;20311;-53
2023/11/15 04:48:13;;;;;;;0.00;0.00;;;26.80;44.50;;;;;;5011758;28;20712;-51
2023/11/15 04:50:44;;;;;;;0.00;0.00;;;26.80;44.50;;;;;;5014506;28;20216;-52
2023/11/15 04:53:14;;;;;;;0.00;0.00;;;26.80;44.40;;;;;;5031708;28;20203;-51
2023/11/15 04:55:47;;;;;;;0.00;0.00;;;26.80;44.40;;;;;;5025857;28;20197;-53
2023/11/15 04:58:17;;;;;;;0.00;0.00;;;26.90;44.40;;;;;;5010553;28;20233;-45
2023/11/15 05:00:48;;;;;;;0.00;0.00;;;26.90;44.40;;;;;;5012266;28;20200;-55
2023/11/15 05:03:19;;;;;;;0.00;0.00;;;26.90;44.40;;;;;;5011217;28;20197;-55
2023/11/15 05:05:50;;;;;;;0.00;0.00;;;26.90;44.30;;;;;;5012065;28;20197;-55
2023/11/15 05:08:20;;;;;;;0.00;0.00;;;26.90;44.30;;;;;;5011144;28;20224;-53
2023/11/15 05:10:53;;;;;;;0.00;0.00;;;26.90;44.40;;;;;;5010279;28;20232;-55
2023/11/15 05:13:23;;;;;;;0.00;0.00;;;26.90;44.40;;;;;;5012130;28;20203;-56
2023/11/15 05:15:54;;;;;;;0.00;0.00;;;26.90;44.40;;;;;;5014775;28;20193;-53
2023/11/15 05:18:25;;;;;;;0.00;0.00;;;26.90;44.30;;;;;;5008176;28;20217;-53
2023/11/15 05:20:56;;;;;;;0.00;0.00;;;26.90;44.30;;;;;;5012857;28;20251;-50
2023/11/15 05:23:26;;;;;;;0.00;0.00;;;26.90;44.30;;;;;;5002749;28;20342;-53
2023/11/15 05:25:59;;;;;;;0.00;0.00;;;26.90;44.30;;;;;;5012558;28;20196;-52
2023/11/15 05:28:30;;;;;;;0.00;0.00;;;26.90;44.30;;;;;;5021294;28;20244;-51
2023/11/15 05:31:00;;;;;;;0.00;0.00;;;26.90;44.30;;;;;;5010955;28;20220;-53
2023/11/15 05:33:31;;;;;;;0.00;0.00;;;26.90;44.30;;;;;;5021905;28;20188;-53
2023/11/15 05:36:02;;;;;;;0.00;0.00;;;27.00;44.20;;;;;;5019261;28;20247;-47
2023/11/15 05:38:32;;;;;;;0.00;0.00;;;26.90;44.10;;;;;;5015588;28;20727;-53
2023/11/15 05:41:05;;;;;;;0.00;0.00;;;26.90;44.10;;;;;;5012674;28;20193;-51
2023/11/15 05:43:36;;;;;;;0.00;0.00;;;26.90;44.00;;;;;;5010548;28;20338;-50
2023/11/15 05:46:07;;;;;;;0.00;0.00;;;26.90;44.00;;;;;;5016730;28;20692;-51
2023/11/15 05:48:37;;;;;;;0.00;0.00;;;26.90;43.90;;;;;;5019784;28;20216;-48
2023/11/15 05:51:08;;;;;;;0.00;0.00;;;26.90;44.00;;;;;;5017358;28;20678;-52
2023/11/15 05:53:39;;;;;;;0.00;0.00;;;26.90;43.90;;;;;;5017429;28;20188;-53
2023/11/15 05:56:12;;;;;;;0.00;0.00;;;26.90;43.90;;;;;;5011511;28;20640;-54
2023/11/15 05:58:43;;;;;;;0.00;0.00;;;26.90;43.80;;;;;;5012217;28;20573;-50
2023/11/15 06:01:13;;;;;;;0.00;0.00;;;26.90;43.90;;;;;;5017063;28;20189;-52
2023/11/15 06:03:46;;;;;;;0.00;0.00;;;26.90;43.90;;;;;;5009805;28;20192;-54
2023/11/15 06:06:16;;;;;;;0.00;0.00;;;26.90;43.90;;;;;;5005777;28;20190;-56
2023/11/15 06:08:47;;;;;;;0.00;0.00;;;26.90;43.90;;;;;;5017202;28;20699;-55
2023/11/15 06:11:23;;;;;;;0.00;0.00;;;26.80;43.80;;;;;;5018354;28;20224;-55
2023/11/15 06:13:54;;;;;;;0.00;0.00;;;26.80;43.80;;;;;;5016790;28;20196;-56
2023/11/15 06:16:24;;;;;;;0.00;0.00;;;26.80;43.80;;;;;;5013269;28;20661;-55
2023/11/15 06:18:55;;;;;;;0.00;0.00;;;26.80;44.40;;;;;;5018956;28;20209;-54
2023/11/15 06:21:26;;;;;;;0.00;0.00;;;26.80;43.80;;;;;;5005630;28;20189;-55
2023/11/15 06:23:57;;;;;;;0.00;0.00;;;26.80;43.80;;;;;;5011626;28;20193;-53
2023/11/15 06:26:30;;;;;;;0.00;0.00;;;26.80;43.70;;;;;;5013055;28;20209;-53
2023/11/15 06:29:03;;;;;;;0.00;0.00;;;26.80;43.70;;;;;;5003000;28;20260;-50
2023/11/15 06:31:36;;;;;;;0.00;0.00;;;26.80;43.70;;;;;;4995307;28;20228;-55
2023/11/15 06:34:08;;;;;;;0.00;0.00;;;26.70;43.70;;;;;;4995144;28;20697;-55
2023/11/15 06:36:39;;;;;;;0.00;0.00;;;26.70;43.60;;;;;;4995252;28;20202;-54
2023/11/15 06:39:12;;;;;;;0.00;0.00;;;26.70;43.60;;;;;;4995383;28;20197;-53
2023/11/15 06:41:44;;;;;;;0.00;0.00;;;26.70;43.70;;;;;;5016345;28;20211;-54
2023/11/15 06:44:15;;;;;;;0.00;0.00;;;26.70;43.70;;;;;;5034390;28;20273;-54
2023/11/15 06:46:46;;;;;;;0.00;0.00;;;26.70;43.70;;;;;;5034243;28;20223;-56
2023/11/15 06:49:17;;;;;;;0.00;0.00;;;26.60;43.70;;;;;;5033512;28;20204;-55
2023/11/15 06:51:51;;;;;;;0.00;0.00;;;26.60;43.70;;;;;;5033744;28;20228;-54
2023/11/15 06:54:22;;;;;;;0.00;0.00;;;26.60;43.70;;;;;;5033950;28;20203;-54
2023/11/15 06:56:55;;;;;;;0.00;0.00;;;26.60;43.70;;;;;;5033958;28;20227;-53
2023/11/15 06:59:25;;;;;;;0.00;0.00;;;26.60;43.70;;;;;;5034074;28;20567;-55
2023/11/15 07:01:59;;;;;;;0.00;0.00;;;26.50;43.60;;;;;;5033833;28;20208;-54
2023/11/15 07:04:30;;;;;;;0.00;0.00;;;26.50;43.60;;;;;;5033644;28;20198;-54
2023/11/15 07:07:00;;;;;;;0.00;0.00;;;26.50;43.60;;;;;;5034089;28;20818;-54
2023/11/15 07:09:31;;;;;;;0.00;0.00;;;26.50;43.60;;;;;;5034037;28;20196;-55
2023/11/15 07:12:04;;;;;;;0.00;0.00;;;26.50;43.60;;;;;;5021063;28;20225;-55
2023/11/15 07:14:36;;;;;;;0.00;0.00;;;26.50;43.60;;;;;;5013826;28;20623;-56
2023/11/15 07:17:07;;;;;;;0.00;0.00;;;26.50;43.60;;;;;;5013663;28;20303;-55
2023/11/15 07:19:39;;;;;;;0.00;0.00;;;26.40;43.50;;;;;;5010545;28;20251;-53
2023/11/15 07:22:10;;;;;;;0.00;0.00;;;26.40;43.50;;;;;;5013932;28;20204;-55
2023/11/15 07:24:41;;;;;;;0.00;0.00;;;26.40;43.50;;;;;;5013604;28;20232;-53
2023/11/15 07:27:13;;;;;;;0.00;0.00;;;26.40;43.60;;;;;;5013443;28;20303;-48
2023/11/15 07:29:45;;;;;;;0.00;0.00;;;26.30;43.50;;;;;;5014388;28;20203;-53
2023/11/15 07:32:17;;;;;;;0.00;0.00;;;26.30;43.50;;;;;;5013783;28;20641;-52
2023/11/15 07:34:47;;;;;;;0.00;0.00;;;26.30;43.60;;;;;;5013663;28;20270;-53
2023/11/15 07:37:18;;;;;;;0.00;0.00;;;26.30;43.60;;;;;;5012850;28;20715;-54
2023/11/15 07:39:48;;;;;;;0.00;0.00;;;26.20;43.60;;;;;;5013348;28;20208;-56
2023/11/15 07:42:21;;;;;;;0.00;0.00;;;26.20;43.60;;;;;;5012079;28;20207;-55
2023/11/15 07:44:52;;;;;;;0.00;0.00;;;26.20;43.70;;;;;;5013132;28;20197;-52
2023/11/15 07:47:22;;;;;;;0.00;0.00;;;26.20;43.60;;;;;;5012880;28;20224;-53
2023/11/15 07:49:53;;;;;;;0.00;0.00;;;26.20;43.70;;;;;;5013124;28;20680;-53
2023/11/15 07:52:25;;;;;;;0.00;0.00;;;26.20;43.70;;;;;;5013713;28;20213;-51
2023/11/15 07:54:56;;;;;;;0.00;0.00;;;26.10;43.60;;;;;;5013537;28;20251;-55
2023/11/15 07:57:28;;;;;;;0.00;0.00;;;26.10;43.60;;;;;;5013462;28;20236;-51
2023/11/15 07:59:59;;;;;;;0.00;0.00;;;26.10;43.60;;;;;;5013581;28;20231;-51
2023/11/15 08:02:30;;;;;;;0.00;0.00;;;26.10;43.60;;;;;;5013015;28;20704;-53
2023/11/15 08:05:01;;;;;;;0.00;0.00;;;26.00;43.50;;;;;;5013213;28;20201;-53
2023/11/15 08:07:31;;;;;;;0.00;0.00;;;26.00;43.60;;;;;;5013248;28;20224;-53
2023/11/15 08:10:02;;;;;;;0.00;0.00;;;26.00;43.60;;;;;;5027376;28;20205;-52
2023/11/15 08:12:35;;;;;;;0.00;0.00;;;26.00;43.60;;;;;;5015818;28;20302;-52
2023/11/15 08:15:07;;;;;;;0.00;0.00;;;26.00;43.70;;;;;;5032044;28;20192;-56
2023/11/15 08:17:38;;;;;;;0.00;0.00;;;25.90;43.50;;;;;;5032192;28;20223;-55
2023/11/15 08:20:10;;;;;;;0.00;0.00;;;25.90;43.60;;;;;;5031937;28;20192;-54
2023/11/15 08:22:41;;;;;;;0.00;0.00;;;25.90;43.60;;;;;;5032171;28;20234;-56
2023/11/15 08:25:12;;;;;;;0.00;0.00;;;25.80;43.60;;;;;;5032215;28;20195;-55
2023/11/15 08:27:45;;;;;;;0.00;0.00;;;25.80;43.60;;;;;;5032004;28;20303;-56
2023/11/15 08:30:17;;;;;;;0.00;0.00;;;25.80;43.60;;;;;;5032402;28;20564;-52
2023/11/15 08:32:48;;;;;;;0.00;0.00;;;25.80;43.60;;;;;;5031608;28;20246;-54
2023/11/15 08:35:20;;;;;;;0.00;0.00;;;25.80;43.60;;;;;;5032547;28;20604;-51
2023/11/15 08:37:52;;;;;;;0.00;0.00;;;25.70;43.60;;;;;;5032178;28;20232;-52
2023/11/15 08:40:24;;;;;;;0.00;0.00;;;25.70;43.60;;;;;;5031848;28;20195;-48
2023/11/15 08:42:57;;;;;;;0.00;0.00;;;25.70;43.70;;;;;;4992988;28;20197;-55
2023/11/15 08:45:28;;;;;;;0.00;0.00;;;25.60;43.60;;;;;;4992850;28;20258;-54
2023/11/15 08:47:58;;;;;;;0.00;0.00;;;25.60;43.70;;;;;;4992295;28;20701;-56
2023/11/15 08:50:29;;;;;;;0.00;0.00;;;25.60;44.30;;;;;;4992446;28;20198;-57
2023/11/15 08:53:00;;;;;;;0.00;0.00;;;25.60;43.70;;;;;;4992057;28;20248;-48
2023/11/15 08:55:31;;;;;;;0.00;0.00;;;25.60;43.60;;;;;;4992926;28;20197;-54
2023/11/15 08:58:05;;;;;;;0.00;0.00;;;25.50;43.60;;;;;;4992820;28;20229;-57
2023/11/15 09:00:36;;;;;;;0.00;0.00;;;25.50;43.60;;;;;;4992613;28;20198;-54
2023/11/15 09:03:08;;;;;;;0.00;0.00;;;25.40;43.50;;;;;;4992091;28;20190;-56
2023/11/15 09:05:39;;;;;;;0.00;0.00;;;25.40;43.50;;;;;;4992359;28;20194;-55
2023/11/15 09:08:10;;;;;;;0.00;0.00;;;25.40;43.50;;;;;;4992076;28;20582;-51
2023/11/15 09:10:40;;;;;;;0.00;0.00;;;25.40;43.50;;;;;;4994503;28;20267;-55
2023/11/15 09:13:18;;;;;;;0.00;0.00;;;25.30;43.50;;;;;;5012790;28;20203;-55
2023/11/15 09:15:50;;;;;;;0.00;0.00;;;25.30;43.50;;;;;;5011707;28;20215;-54
2023/11/15 09:18:23;;;;;;;0.00;0.00;;;25.30;43.50;;;;;;5009183;28;20325;-55
2023/11/15 09:20:54;;;;;;;0.00;0.00;;;25.30;43.50;;;;;;5011561;28;20205;-56
2023/11/15 09:23:25;;;;;;;0.00;0.00;;;25.20;43.50;;;;;;5011524;28;20204;-44
2023/11/15 09:25:58;;;;;;;0.00;0.00;;;25.20;43.50;;;;;;5011690;28;20657;-51
2023/11/15 09:28:31;;;;;;;0.00;0.00;;;25.20;43.60;;;;;;5012062;28;20213;-55
2023/11/15 09:31:04;;;;;;;0.00;0.00;;;25.10;43.50;;;;;;5011883;28;20221;-42
2023/11/15 09:33:36;;;;;;;0.00;0.00;;;25.10;43.50;;;;;;5011407;28;20259;-55
2023/11/15 09:36:07;;;;;;;0.00;0.00;;;25.10;43.50;;;;;;5011429;28;20279;-57
2023/11/15 09:38:39;;;;;;;0.00;0.00;;;25.10;43.50;;;;;;5010820;28;20264;-56
2023/11/15 09:41:17;;;;;;;0.00;0.00;;;25.10;43.50;;;;;;5011259;28;20209;-55
2023/11/15 09:43:55;;;;;;;0.00;0.00;;;25.00;43.50;;;;;;5011390;28;20201;-43
2023/11/15 09:46:30;;;;;;;0.00;0.00;;;25.00;44.10;;;;;;5011253;28;20680;-56
2023/11/15 09:49:01;;;;;;;0.00;0.00;;;25.00;43.50;;;;;;5011498;28;20551;-48
2023/11/15 09:51:34;;;;;;;0.03;0.03;;;24.90;43.50;;;;;;5011335;28;20228;-56
2023/11/15 09:54:06;;;;;;;0.00;0.00;;;24.90;43.50;;;;;;5011223;28;20202;-44
2023/11/15 09:56:37;;;;;;;0.00;0.00;;;24.90;43.50;;;;;;5011425;28;20229;-51
2023/11/15 09:59:10;;;;;;;0.05;0.05;;;24.80;43.40;;;;;;5011498;28;20200;-48
2023/11/15 10:01:46;;;;;;;0.00;0.00;;;24.80;43.50;;;;;;5010899;28;20279;-43
2023/11/15 10:04:27;;;;;;;0.00;0.00;;;24.80;43.50;;;;;;5012450;28;20491;-44
2023/11/15 10:06:58;;;;;;;0.03;0.03;;;24.70;43.50;;;;;;5024995;28;20216;-55
2023/11/15 10:09:39;;;;;;;0.00;0.00;;;24.70;43.50;;;;;;5034748;28;20193;-53
2023/11/15 10:12:10;;;;;;;0.10;0.10;;;24.70;43.50;;;;;;5021323;28;20231;-55
2023/11/15 10:14:54;;;;;;;0.00;0.00;;;24.70;43.50;;;;;;5015334;28;20197;-56
2023/11/15 10:17:42;;;;;;;0.00;0.00;;;24.60;43.50;;;;;;5014405;28;20605;-56
2023/11/15 10:20:25;;;;;;;0.00;0.00;;;24.60;43.50;;;;;;5015073;28;20201;-55
2023/11/15 10:22:57;;;;;;;0.00;0.00;;;24.50;43.50;;;;;;5015044;28;20584;-56
2023/11/15 10:25:28;;;;;;;0.00;0.00;;;24.50;43.50;;;;;;5014625;28;20193;-56
2023/11/15 10:28:07;;;;;;;0.00;0.00;;;24.50;43.60;;;;;;5014229;28;20220;-55
2023/11/15 10:30:40;;;;;;;0.00;0.00;;;24.50;43.60;;;;;;5014021;28;20607;-54
2023/11/15 10:33:13;;;;;;;0.00;0.00;;;24.50;43.60;;;;;;5017194;28;20234;-56
2023/11/15 10:35:43;;;;;;;0.00;0.00;;;24.40;43.60;;;;;;5034215;28;20196;-56
2023/11/15 10:38:23;;;;;;;0.00;0.00;;;24.40;43.50;;;;;;5034177;28;20255;-54
2023/11/15 10:40:57;;;;;;;0.05;0.05;;;24.40;43.60;;;;;;5030491;28;20200;-55
2023/11/15 10:43:29;;;;;;;0.00;0.00;;;24.30;43.50;;;;;;5014600;28;20203;-55
2023/11/15 10:46:05;;;;;;;0.00;0.00;;;24.30;43.60;;;;;;5012032;28;20197;-55
2023/11/15 10:48:39;;;;;;;0.00;0.00;;;24.30;43.60;;;;;;5014266;28;20216;-55
2023/11/15 10:51:13;;;;;;;0.00;0.00;;;24.20;43.60;;;;;;5014197;28;20219;-57
2023/11/15 10:53:46;;;;;;;0.00;0.00;;;24.20;43.50;;;;;;5008902;28;20188;-55
2023/11/15 10:56:19;;;;;;;0.00;0.00;;;24.20;44.20;;;;;;5012872;28;20201;-56
2023/11/15 10:58:52;;;;;;;0.00;0.00;;;24.20;43.60;;;;;;5013788;28;20274;-56
2023/11/15 11:01:31;;;;;;;0.10;0.10;;;24.20;43.60;;;;;;5012830;28;20196;-54
2023/11/15 11:04:07;;;;;;;0.08;0.08;;;24.10;43.60;;;;;;5021100;28;20225;-55
2023/11/15 11:06:47;;;;;;;0.00;0.00;;;24.10;43.60;;;;;;5013514;28;20232;-57
2023/11/15 11:09:25;;;;;;;0.00;0.00;;;24.10;43.60;;;;;;5005159;28;20197;-54
2023/11/15 11:12:03;;;;;;;0.00;0.00;;;24.00;43.60;;;;;;5012839;28;20232;-56
2023/11/15 11:14:35;;;;;;;0.00;0.00;;;24.00;43.60;;;;;;5013301;28;20645;-56
2023/11/15 11:17:34;;;;;;;0.00;0.00;;;24.00;43.60;;;;;;5013370;28;20220;-54
2023/11/15 11:20:09;;;;;;;0.00;0.00;;;24.00;43.70;;;;;;5012039;28;20200;-51
2023/11/15 11:23:00;;;;;;;0.00;0.00;;;23.90;43.60;;;;;;4994019;28;20201;-53
2023/11/15 11:25:30;;;;;;;0.00;0.00;;;23.90;43.60;;;;;;4993843;28;20658;-57
2023/11/15 11:28:01;;;;;;;0.00;0.00;;;23.90;43.60;;;;;;4993786;28;20232;-56
2023/11/15 11:30:32;;;;;;;0.00;0.00;;;23.80;43.60;;;;;;5000735;28;20197;-56
2023/11/15 11:33:19;;;;;;;0.00;0.00;;;23.80;43.60;;;;;;5013082;28;20696;-55
2023/11/15 11:35:50;;;;;;;0.03;0.03;;;23.70;43.60;;;;;;5012478;28;20197;-50
2023/11/15 11:38:54;;;;;;;0.00;0.00;;;23.70;43.60;;;;;;5012324;28;20228;-55
2023/11/15 11:41:25;;;;;;;0.00;0.00;;;23.70;43.60;;;;;;4932831;29;20206;-56
2023/11/15 11:44:04;;;;;;;0.00;0.00;;;23.70;43.60;;;;;;4933058;29;20208;-57
2023/11/15 11:46:35;;;;;;;0.00;0.00;;;23.70;43.70;;;;;;4978895;28;20266;-56
2023/11/15 11:49:08;;;;;;;0.00;0.00;;;23.60;43.60;;;;;;5013023;28;20695;-56
2023/11/15 11:51:40;;;;;;;0.00;0.00;;;23.60;44.20;;;;;;5012677;28;20232;-55
2023/11/15 11:54:23;;;;;;;0.00;0.00;;;23.60;43.70;;;;;;5012698;28;20193;-55
2023/11/15 11:56:54;;;;;;;0.10;0.10;;;23.50;43.60;;;;;;5012060;28;20208;-52
2023/11/15 11:59:28;;;;;;;0.00;0.00;;;23.50;43.60;;;;;;5011549;28;20688;-55
2023/11/15 12:01:58;;;;;;;0.00;0.00;;;23.50;43.60;;;;;;5008219;28;20200;-56
2023/11/15 12:04:31;;;;;;;0.00;0.00;;;23.50;43.60;;;;;;5012799;28;20544;-59
2023/11/15 12:07:04;;;;;;;0.00;0.00;;;23.50;43.70;;;;;;5016019;28;20221;-56
2023/11/15 12:09:36;;;;;;;0.00;0.00;;;23.40;43.60;;;;;;5010049;28;20561;-54
2023/11/15 12:12:07;;;;;;;0.00;0.00;;;23.40;43.60;;;;;;5013104;28;20235;-56
2023/11/15 12:14:52;;;;;;;0.00;0.00;;;23.40;43.60;;;;;;5010686;28;20193;-57
2023/11/15 12:17:23;;;;;;;0.03;0.03;;;23.30;43.60;;;;;;5011426;28;20259;-56
2023/11/15 12:19:55;;;;;;;0.00;0.00;;;23.30;43.70;;;;;;5016809;28;20215;-52
2023/11/15 12:22:26;;;;;;;0.00;0.00;;;23.30;43.70;;;;;;5012742;28;20280;-56
2023/11/15 12:24:58;;;;;;;0.00;0.00;;;23.30;43.70;;;;;;5010372;28;20203;-50
2023/11/15 12:27:28;;;;;;;0.10;0.10;;;23.30;43.70;;;;;;5012071;28;20219;-56
2023/11/15 12:29:59;;;;;;;0.00;0.00;;;23.20;43.70;;;;;;5010624;28;20204;-52
2023/11/15 12:32:30;;;;;;;0.10;0.10;;;23.20;43.70;;;;;;5012023;28;20228;-57
2023/11/15 12:35:05;;;;;;;0.00;0.00;;;23.20;43.70;;;;;;5012237;28;20208;-56
2023/11/15 12:37:37;;;;;;;0.00;0.00;;;23.20;43.70;;;;;;5009834;28;20694;-56
2023/11/15 12:40:20;;;;;;;0.00;0.00;;;23.10;43.70;;;;;;5016668;28;20204;-52
2023/11/15 12:42:54;;;;;;;0.00;0.00;;;23.10;43.80;;;;;;5016243;28;20657;-55
2023/11/15 12:45:34;;;;;;;0.10;0.10;;;23.10;43.70;;;;;;5012188;28;20300;-56
2023/11/15 12:48:07;;;;;;;0.08;0.08;;;23.10;43.80;;;;;;5010889;28;20219;-52
2023/11/15 12:50:41;;;;;;;0.05;0.05;;;23.10;43.80;;;;;;5012280;28;20283;-56
2023/11/15 12:53:13;;;;;;;0.00;0.00;;;23.00;43.70;;;;;;5012365;28;20232;-51
2023/11/15 12:55:54;;;;;;;0.00;0.00;;;23.00;43.80;;;;;;5012612;28;20197;-47
2023/11/15 12:58:45;;;;;;;0.00;0.00;;;23.00;43.80;;;;;;5012453;28;20692;-48
2023/11/15 13:01:19;;;;;;;0.05;0.05;;;23.00;43.80;;;;;;5012366;28;20207;-51
2023/11/15 13:03:59;;;;;;;0.00;0.00;;;22.90;43.70;;;;;;5012594;28;20205;-56
2023/11/15 13:06:39;;;;;;;0.10;0.10;;;22.90;43.80;;;;;;5012051;28;20196;-56
2023/11/15 13:09:14;;;;;;;0.00;0.00;;;22.90;43.80;;;;;;5011547;28;20248;-56
2023/11/15 13:11:51;;;;;;;0.10;0.10;;;22.90;43.80;;;;;;5010432;28;20196;-50
2023/11/15 13:14:24;;;;;;;0.00;0.00;;;22.90;43.90;;;;;;5012261;28;20200;-53